Time;durP1;ratioP1;P1;durP2;ratioP2;P2;SDS_P1;SDS_P2;PMS_P1;PMS_P2;Temp;Humidity;BMP_temperature;BMP_pressure;BME280_temperature;BME280_humidity;BME280_pressure;Samples;Min_cycle;Max_cycle;Signal;HPM_P1;HPM_P2
2022/11/06 00:00:55;;;;;;;8.38;3.90;;;;;;;;;;4966408;28;20023;-76
2022/11/06 00:03:21;;;;;;;10.05;3.75;;;;;;;;;;4948698;28;20032;-77
2022/11/06 00:08:39;;;;;;;9.25;4.20;;;;;;;;;;4932158;28;20094;-75
2022/11/06 00:11:13;;;;;;;8.00;3.63;;;;;;;;;;4950488;28;20467;-77
2022/11/06 00:13:40;;;;;;;7.13;3.40;;;;;;;;;;4950259;29;20054;-75
2022/11/06 00:16:08;;;;;;;6.18;3.22;;;;;;;;;;4944324;28;20039;-76
2022/11/06 00:18:34;;;;;;;6.15;3.30;;;;;;;;;;4948539;28;20067;-75
2022/11/06 00:21:06;;;;;;;9.13;3.90;;;;;;;;;;4944273;28;20118;-76
2022/11/06 00:23:32;;;;;;;8.00;3.58;;;;;;;;;;4945558;28;20122;-76
2022/11/06 00:25:57;;;;;;;6.20;3.38;;;;;;;;;;4955821;28;20022;-75
2022/11/06 00:28:22;;;;;;;7.28;3.50;;;;;;;;;;4939246;28;20031;-75
2022/11/06 00:30:48;;;;;;;6.40;3.20;;;;;;;;;;4945854;28;20035;-77
2022/11/06 00:33:13;;;;;;;8.77;3.90;;;;;;;;;;4956391;28;20074;-75
2022/11/06 00:35:39;;;;;;;10.45;3.28;;;;;;;;;;4941220;28;20027;-77
2022/11/06 00:38:05;;;;;;;10.75;3.55;;;;;;;;;;4942797;28;20446;-76
2022/11/06 00:40:30;;;;;;;5.53;2.88;;;;;;;;;;4944476;28;20027;-76
2022/11/06 00:42:56;;;;;;;6.00;3.28;;;;;;;;;;4954955;28;20034;-77
2022/11/06 00:45:23;;;;;;;7.05;3.17;;;;;;;;;;4943939;28;20031;-75
2022/11/06 00:47:48;;;;;;;5.20;2.78;;;;;;;;;;4946121;28;20484;-77
2022/11/06 00:50:14;;;;;;;7.22;3.10;;;;;;;;;;4941138;28;20035;-75
2022/11/06 00:52:39;;;;;;;7.13;2.88;;;;;;;;;;4941250;28;20030;-76
2022/11/06 00:55:04;;;;;;;6.97;2.88;;;;;;;;;;4943633;28;20035;-75
2022/11/06 00:57:31;;;;;;;5.32;2.88;;;;;;;;;;4939662;28;20031;-76
2022/11/06 00:59:56;;;;;;;7.97;3.40;;;;;;;;;;4941170;28;20031;-77
2022/11/06 01:02:21;;;;;;;6.28;2.83;;;;;;;;;;4943848;28;20388;-75
2022/11/06 01:04:47;;;;;;;7.47;3.08;;;;;;;;;;4942770;28;20055;-77
2022/11/06 01:07:12;;;;;;;3.60;2.55;;;;;;;;;;4959452;28;20047;-77
2022/11/06 01:09:37;;;;;;;7.03;3.00;;;;;;;;;;4941063;28;20114;-76
2022/11/06 01:12:03;;;;;;;5.22;2.78;;;;;;;;;;4949824;28;20086;-76
2022/11/06 01:14:29;;;;;;;6.50;3.00;;;;;;;;;;4952025;28;20031;-77
2022/11/06 01:16:55;;;;;;;4.13;2.70;;;;;;;;;;4967299;28;20027;-75
2022/11/06 01:19:21;;;;;;;6.00;2.75;;;;;;;;;;4948738;28;20506;-76
2022/11/06 01:21:48;;;;;;;5.90;2.50;;;;;;;;;;4954685;28;20039;-76
2022/11/06 01:24:33;;;;;;;6.95;2.90;;;;;;;;;;4962345;28;21253;-77
2022/11/06 01:26:59;;;;;;;6.28;2.58;;;;;;;;;;4958079;28;20083;-77
2022/11/06 01:29:24;;;;;;;7.07;2.80;;;;;;;;;;4944944;28;20031;-76
2022/11/06 01:31:49;;;;;;;5.85;2.70;;;;;;;;;;4949247;28;20039;-75
2022/11/06 01:34:16;;;;;;;5.57;2.50;;;;;;;;;;4966069;28;20027;-75
2022/11/06 01:36:41;;;;;;;7.30;2.80;;;;;;;;;;4948855;28;20086;-75
2022/11/06 01:39:10;;;;;;;7.07;2.55;;;;;;;;;;4950319;28;20030;-76
2022/11/06 01:41:38;;;;;;;7.90;3.00;;;;;;;;;;4947806;28;20042;-75
2022/11/06 01:44:24;;;;;;;5.45;2.78;;;;;;;;;;4947867;28;20034;-76
2022/11/06 01:46:49;;;;;;;5.68;2.58;;;;;;;;;;4948884;28;20031;-76
2022/11/06 01:49:16;;;;;;;6.13;2.70;;;;;;;;;;4948509;28;20035;-76
2022/11/06 01:51:50;;;;;;;5.40;2.45;;;;;;;;;;4949312;28;20114;-75
2022/11/06 01:54:16;;;;;;;6.28;2.70;;;;;;;;;;4958795;28;20035;-75
2022/11/06 01:56:43;;;;;;;4.70;2.35;;;;;;;;;;4948287;28;20027;-76
2022/11/06 01:59:13;;;;;;;6.78;2.40;;;;;;;;;;4944127;28;20023;-75
2022/11/06 02:01:39;;;;;;;5.85;2.20;;;;;;;;;;4941656;28;20027;-77
2022/11/06 02:04:12;;;;;;;6.88;2.70;;;;;;;;;;4947845;28;20548;-76
2022/11/06 02:06:37;;;;;;;;;;;;;;;;;;4949746;28;20047;-76
2022/11/06 02:09:10;;;;;;;6.22;2.15;;;;;;;;;;4952361;28;19921;-75
2022/11/06 02:11:40;;;;;;;7.55;2.80;;;;;;;;;;4948205;29;20078;-76
2022/11/06 02:14:27;;;;;;;5.72;2.38;;;;;;;;;;4945781;28;20031;-75
2022/11/06 02:17:08;;;;;;;4.57;2.13;;;;;;;;;;4952281;28;20043;-75
2022/11/06 02:19:52;;;;;;;4.72;2.50;;;;;;;;;;4946523;28;20106;-76
2022/11/06 02:22:35;;;;;;;5.53;2.33;;;;;;;;;;4947696;28;20042;-75
2022/11/06 02:25:21;;;;;;;4.85;2.10;;;;;;;;;;4948250;28;20102;-75
2022/11/06 02:27:56;;;;;;;5.35;2.13;;;;;;;;;;4947923;28;20122;-75
2022/11/06 02:30:21;;;;;;;5.72;2.03;;;;;;;;;;4951035;28;20043;-77
2022/11/06 02:33:00;;;;;;;5.90;2.25;;;;;;;;;;4949794;28;20086;-75
2022/11/06 02:35:39;;;;;;;8.75;2.10;;;;;;;;;;4948127;28;20059;-75
2022/11/06 02:38:09;;;;;;;3.90;2.03;;;;;;;;;;4950900;28;20024;-75
2022/11/06 02:40:40;;;;;;;6.30;2.20;;;;;;;;;;4943770;28;20487;-75
2022/11/06 02:43:08;;;;;;;5.05;2.80;;;;;;;;;;4947980;28;20026;-75
2022/11/06 02:45:41;;;;;;;6.70;2.00;;;;;;;;;;4948412;28;20039;-76
2022/11/06 02:48:09;;;;;;;7.85;2.17;;;;;;;;;;4963666;28;20046;-76
2022/11/06 02:50:41;;;;;;;4.72;1.80;;;;;;;;;;4948499;28;20245;-75
2022/11/06 02:53:09;;;;;;;5.75;2.33;;;;;;;;;;4951426;28;20106;-75
2022/11/06 02:55:42;;;;;;;4.93;1.90;;;;;;;;;;4962590;28;20035;-75
2022/11/06 02:58:12;;;;;;;6.47;2.40;;;;;;;;;;4962582;28;20051;-77
2022/11/06 03:00:41;;;;;;;6.22;2.15;;;;;;;;;;4943911;28;20035;-76
2022/11/06 03:03:15;;;;;;;5.43;2.20;;;;;;;;;;4945031;28;20420;-77
2022/11/06 03:05:57;;;;;;;4.40;1.88;;;;;;;;;;4948256;28;20105;-75
2022/11/06 03:08:26;;;;;;;4.18;1.90;;;;;;;;;;4950662;28;20135;-75
2022/11/06 03:11:04;;;;;;;7.50;1.88;;;;;;;;;;4942964;28;20019;-75
2022/11/06 03:13:42;;;;;;;7.30;1.98;;;;;;;;;;4944500;28;20085;-76
2022/11/06 03:16:16;;;;;;;5.93;2.15;;;;;;;;;;4955890;28;20102;-77
2022/11/06 03:18:57;;;;;;;5.80;2.10;;;;;;;;;;4943231;28;20031;-76
2022/11/06 03:21:39;;;;;;;5.20;1.77;;;;;;;;;;4958007;28;20031;-76
2022/11/06 03:24:13;;;;;;;4.72;1.90;;;;;;;;;;4946275;28;20034;-78
2022/11/06 03:26:44;;;;;;;4.43;1.77;;;;;;;;;;4960043;28;20035;-76
2022/11/06 03:29:23;;;;;;;5.70;1.98;;;;;;;;;;4940451;28;20028;-76
2022/11/06 03:32:03;;;;;;;5.38;1.60;;;;;;;;;;4945602;28;20023;-77
2022/11/06 03:34:38;;;;;;;5.97;1.92;;;;;;;;;;4946573;28;20059;-76
2022/11/06 03:37:09;;;;;;;4.35;1.67;;;;;;;;;;4958245;28;20502;-75
2022/11/06 03:39:39;;;;;;;5.03;1.70;;;;;;;;;;4947488;28;20034;-75
2022/11/06 03:42:11;;;;;;;6.80;1.95;;;;;;;;;;4963037;28;20066;-77
2022/11/06 03:44:45;;;;;;;5.53;1.75;;;;;;;;;;4942755;28;20027;-77
2022/11/06 03:47:17;;;;;;;5.40;1.63;;;;;;;;;;4946568;28;20046;-76
2022/11/06 03:49:58;;;;;;;6.47;2.00;;;;;;;;;;4948690;28;20097;-75
2022/11/06 03:52:30;;;;;;;7.05;1.90;;;;;;;;;;4946499;28;20035;-76
2022/11/06 03:55:20;;;;;;;4.95;1.88;;;;;;;;;;4946591;28;20027;-76
2022/11/06 03:57:50;;;;;;;5.00;1.55;;;;;;;;;;4944933;28;20042;-78
2022/11/06 04:00:19;;;;;;;3.88;1.70;;;;;;;;;;4942219;28;20396;-76
2022/11/06 04:02:50;;;;;;;3.50;1.50;;;;;;;;;;4956114;28;20418;-77
2022/11/06 04:05:21;;;;;;;4.20;1.60;;;;;;;;;;4956432;28;20022;-75
2022/11/06 04:16:08;;;;;;;5.20;1.63;;;;;;;;;;4949206;28;20226;-75
2022/11/06 04:18:33;;;;;;;4.78;1.70;;;;;;;;;;4944945;28;20989;-75
2022/11/06 04:21:21;;;;;;;5.43;1.80;;;;;;;;;;4947974;28;20428;-75
2022/11/06 04:27:01;;;;;;;5.65;1.90;;;;;;;;;;4950735;29;20097;-75
2022/11/06 04:29:51;;;;;;;3.70;1.50;;;;;;;;;;4949541;28;20109;-75
2022/11/06 04:32:27;;;;;;;4.47;1.90;;;;;;;;;;4942674;28;20059;-77
2022/11/06 04:35:19;;;;;;;5.60;1.58;;;;;;;;;;4944636;28;20364;-75
2022/11/06 04:38:23;;;;;;;2.95;1.60;;;;;;;;;;4941475;28;20037;-75
2022/11/06 04:40:56;;;;;;;;;;;;;;;;;;4938068;28;20335;-75
2022/11/06 04:43:56;;;;;;;3.55;1.58;;;;;;;;;;4961655;28;20429;-76
2022/11/06 04:46:40;;;;;;;3.63;1.50;;;;;;;;;;4949670;28;20491;-75
2022/11/06 04:49:07;;;;;;;3.88;1.75;;;;;;;;;;4949186;28;20031;-75
2022/11/06 04:51:36;;;;;;;4.45;1.73;;;;;;;;;;4951735;28;20034;-74
2022/11/06 04:54:01;;;;;;;5.82;1.67;;;;;;;;;;4939682;28;20031;-75
2022/11/06 04:56:33;;;;;;;5.68;1.70;;;;;;;;;;4948815;28;20023;-75
2022/11/06 04:58:59;;;;;;;5.50;1.60;;;;;;;;;;4950592;28;20027;-75
2022/11/06 05:01:24;;;;;;;4.55;1.88;;;;;;;;;;4947321;28;20046;-75
2022/11/06 05:03:49;;;;;;;3.72;1.65;;;;;;;;;;4946462;28;20035;-76
2022/11/06 05:06:15;;;;;;;3.53;1.55;;;;;;;;;;4947194;28;20106;-77
2022/11/06 05:08:41;;;;;;;3.20;1.80;;;;;;;;;;4947021;28;20043;-75
2022/11/06 05:11:06;;;;;;;5.45;1.65;;;;;;;;;;4957747;28;20148;-75
2022/11/06 05:13:31;;;;;;;4.50;1.67;;;;;;;;;;4961965;28;20122;-75
2022/11/06 05:15:58;;;;;;;4.88;1.52;;;;;;;;;;4949048;28;20035;-75
2022/11/06 05:18:24;;;;;;;6.30;1.65;;;;;;;;;;4943506;28;20407;-77
2022/11/06 05:23:34;;;;;;;3.22;1.60;;;;;;;;;;4947165;28;20049;-75
2022/11/06 05:25:59;;;;;;;4.63;1.73;;;;;;;;;;4947797;28;20391;-76
2022/11/06 05:28:25;;;;;;;4.53;1.80;;;;;;;;;;4944312;28;20038;-76
2022/11/06 05:30:50;;;;;;;4.07;1.58;;;;;;;;;;4944537;28;20027;-76
2022/11/06 05:33:15;;;;;;;4.88;1.58;;;;;;;;;;4952532;28;20396;-75
2022/11/06 05:35:41;;;;;;;4.38;1.60;;;;;;;;;;4943974;28;20649;-75
2022/11/06 05:38:06;;;;;;;5.32;1.85;;;;;;;;;;4945701;28;21109;-75
2022/11/06 05:40:31;;;;;;;5.47;1.80;;;;;;;;;;4941047;28;20762;-76
2022/11/06 05:42:57;;;;;;;3.65;1.70;;;;;;;;;;4950362;28;20042;-76
2022/11/06 05:45:22;;;;;;;6.85;1.80;;;;;;;;;;4949606;28;20026;-75
2022/11/06 05:47:47;;;;;;;4.68;1.90;;;;;;;;;;4949852;28;20086;-75
2022/11/06 05:50:13;;;;;;;3.50;1.65;;;;;;;;;;4937983;28;20423;-77
2022/11/06 05:52:38;;;;;;;3.65;1.60;;;;;;;;;;4957708;28;20737;-77
2022/11/06 05:55:05;;;;;;;4.22;1.67;;;;;;;;;;4947347;28;20086;-77
2022/11/06 05:57:31;;;;;;;5.65;1.80;;;;;;;;;;4948146;28;20035;-77
2022/11/06 05:59:56;;;;;;;4.13;1.75;;;;;;;;;;4952566;28;20629;-75
2022/11/06 06:02:21;;;;;;;5.50;2.05;;;;;;;;;;4944856;28;20031;-76
2022/11/06 06:04:47;;;;;;;3.40;1.48;;;;;;;;;;4945915;28;20023;-75
2022/11/06 06:07:12;;;;;;;4.20;1.60;;;;;;;;;;4945356;28;20518;-75
2022/11/06 06:09:37;;;;;;;3.63;1.60;;;;;;;;;;4948392;28;20023;-75
2022/11/06 06:12:03;;;;;;;4.32;1.70;;;;;;;;;;4945642;28;20448;-76
2022/11/06 06:14:28;;;;;;;4.25;1.55;;;;;;;;;;4947273;28;20023;-75
2022/11/06 06:16:54;;;;;;;6.20;1.75;;;;;;;;;;4948286;28;20419;-75
2022/11/06 06:19:19;;;;;;;4.85;1.85;;;;;;;;;;4946222;28;20113;-76
2022/11/06 06:21:45;;;;;;;4.28;2.00;;;;;;;;;;4963560;28;20031;-75
2022/11/06 06:24:10;;;;;;;5.72;1.70;;;;;;;;;;4943480;28;20019;-76
2022/11/06 06:26:35;;;;;;;4.82;2.00;;;;;;;;;;4949174;28;20033;-77
2022/11/06 06:29:01;;;;;;;2.90;1.63;;;;;;;;;;4946633;28;20495;-75
2022/11/06 06:31:27;;;;;;;7.00;1.98;;;;;;;;;;4950488;28;20530;-75
2022/11/06 06:33:52;;;;;;;3.30;1.55;;;;;;;;;;4960668;28;20038;-75
2022/11/06 06:36:18;;;;;;;5.65;1.70;;;;;;;;;;4950078;28;20427;-75
2022/11/06 06:38:43;;;;;;;4.65;1.73;;;;;;;;;;4949464;28;20039;-75
2022/11/06 06:41:09;;;;;;;5.72;1.60;;;;;;;;;;4952244;28;20027;-75
2022/11/06 06:43:35;;;;;;;4.45;2.00;;;;;;;;;;4949838;28;20027;-75
2022/11/06 06:46:02;;;;;;;5.20;1.73;;;;;;;;;;4950423;28;20039;-76
2022/11/06 06:48:28;;;;;;;3.33;1.73;;;;;;;;;;4948042;28;20058;-76
2022/11/06 06:51:01;;;;;;;3.83;1.60;;;;;;;;;;4963453;28;20038;-76
2022/11/06 06:53:27;;;;;;;4.72;1.70;;;;;;;;;;4947577;28;20035;-75
2022/11/06 06:55:52;;;;;;;6.75;1.50;;;;;;;;;;4950402;28;20039;-74
2022/11/06 06:58:18;;;;;;;3.63;1.70;;;;;;;;;;4963800;28;20023;-75
2022/11/06 07:00:44;;;;;;;3.25;1.63;;;;;;;;;;4945066;28;20050;-75
2022/11/06 07:03:09;;;;;;;4.18;1.50;;;;;;;;;;4942064;28;20035;-77
2022/11/06 07:05:35;;;;;;;4.78;1.63;;;;;;;;;;4952579;28;20035;-75
2022/11/06 07:08:00;;;;;;;3.58;1.50;;;;;;;;;;4949883;28;20039;-76
2022/11/06 07:10:26;;;;;;;5.28;1.50;;;;;;;;;;4949061;28;20022;-75
2022/11/06 07:12:51;;;;;;;4.93;1.42;;;;;;;;;;4946650;28;20030;-77
2022/11/06 07:15:16;;;;;;;5.32;1.50;;;;;;;;;;4961102;28;20035;-75
2022/11/06 07:17:42;;;;;;;5.53;1.70;;;;;;;;;;4949682;28;20035;-76
2022/11/06 07:20:08;;;;;;;5.18;1.70;;;;;;;;;;4949025;28;20031;-75
2022/11/06 07:22:34;;;;;;;7.43;1.73;;;;;;;;;;4948770;28;20034;-77
2022/11/06 07:24:59;;;;;;;5.28;2.40;;;;;;;;;;4951475;28;20031;-75
2022/11/06 07:27:25;;;;;;;5.38;1.98;;;;;;;;;;4950294;28;20054;-75
2022/11/06 07:29:51;;;;;;;4.50;1.75;;;;;;;;;;4955803;28;20019;-75
2022/11/06 07:32:16;;;;;;;3.92;1.50;;;;;;;;;;4952310;28;20562;-75
2022/11/06 07:34:41;;;;;;;2.83;1.30;;;;;;;;;;4946266;28;20046;-75
2022/11/06 07:37:07;;;;;;;3.35;1.35;;;;;;;;;;4952583;28;20023;-75
2022/11/06 07:39:32;;;;;;;4.25;1.73;;;;;;;;;;4947929;28;20035;-77
2022/11/06 07:41:58;;;;;;;2.85;1.23;;;;;;;;;;4950577;28;20023;-77
2022/11/06 07:44:23;;;;;;;7.03;1.90;;;;;;;;;;4944009;28;20035;-77
2022/11/06 07:46:49;;;;;;;7.22;1.80;;;;;;;;;;4947009;28;20038;-77
2022/11/06 07:49:15;;;;;;;6.35;2.20;;;;;;;;;;4945825;28;20035;-77
2022/11/06 07:51:43;;;;;;;4.10;1.38;;;;;;;;;;4944069;28;20461;-77
2022/11/06 07:54:12;;;;;;;2.90;1.58;;;;;;;;;;4943694;28;20122;-78
2022/11/06 07:56:37;;;;;;;3.67;1.50;;;;;;;;;;4944014;28;21984;-78
2022/11/06 07:59:03;;;;;;;2.10;1.30;;;;;;;;;;4945067;28;20446;-77
2022/11/06 08:01:29;;;;;;;4.10;1.58;;;;;;;;;;4941677;28;20094;-77
2022/11/06 08:03:54;;;;;;;2.90;1.40;;;;;;;;;;4955321;28;20041;-77
2022/11/06 08:06:19;;;;;;;2.97;1.20;;;;;;;;;;4952452;28;20033;-77
2022/11/06 08:08:45;;;;;;;3.00;1.70;;;;;;;;;;4950142;29;20090;-77
2022/11/06 08:11:11;;;;;;;4.97;1.52;;;;;;;;;;4950078;28;20089;-77
2022/11/06 08:13:37;;;;;;;5.75;1.70;;;;;;;;;;4950829;29;20031;-77
2022/11/06 08:16:08;;;;;;;4.18;1.40;;;;;;;;;;4950557;28;20576;-77
2022/11/06 08:18:34;;;;;;;4.10;1.48;;;;;;;;;;4948620;28;20027;-77
2022/11/06 08:20:59;;;;;;;3.00;1.40;;;;;;;;;;4967545;28;20039;-77
2022/11/06 08:23:25;;;;;;;4.10;1.20;;;;;;;;;;4962922;28;20082;-77
2022/11/06 08:25:55;;;;;;;4.28;1.20;;;;;;;;;;4948318;28;20031;-77
2022/11/06 08:28:22;;;;;;;8.15;1.60;;;;;;;;;;4939915;28;20035;-77
2022/11/06 08:30:47;;;;;;;4.80;1.35;;;;;;;;;;4943887;28;20035;-77
2022/11/06 08:33:12;;;;;;;6.75;1.63;;;;;;;;;;4945395;28;20063;-77
2022/11/06 08:35:38;;;;;;;4.65;1.38;;;;;;;;;;4950505;28;20484;-77
2022/11/06 08:38:03;;;;;;;4.45;1.50;;;;;;;;;;4950154;29;20155;-77
2022/11/06 08:40:29;;;;;;;4.53;1.40;;;;;;;;;;4967230;28;20483;-77
2022/11/06 08:42:59;;;;;;;4.00;1.33;;;;;;;;;;4948953;28;20039;-77
2022/11/06 08:45:24;;;;;;;4.50;1.30;;;;;;;;;;4947446;28;20054;-77
2022/11/06 08:47:49;;;;;;;6.63;1.50;;;;;;;;;;4957474;28;20085;-77
2022/11/06 08:50:15;;;;;;;4.15;1.60;;;;;;;;;;4945838;28;20034;-77
2022/11/06 08:52:40;;;;;;;3.83;1.20;;;;;;;;;;4944331;28;20042;-77
2022/11/06 08:55:06;;;;;;;6.53;1.63;;;;;;;;;;4953277;28;20027;-77
2022/11/06 08:57:32;;;;;;;5.85;1.40;;;;;;;;;;4949263;28;20123;-77
2022/11/06 08:59:57;;;;;;;8.73;1.50;;;;;;;;;;4946989;29;20027;-77
2022/11/06 09:02:22;;;;;;;2.85;1.35;;;;;;;;;;4967559;28;20034;-77
2022/11/06 09:04:48;;;;;;;3.78;1.27;;;;;;;;;;4951125;28;20037;-77
2022/11/06 09:07:14;;;;;;;3.15;1.45;;;;;;;;;;4950258;28;20063;-77
2022/11/06 09:09:40;;;;;;;4.45;1.60;;;;;;;;;;4952581;29;20031;-77
2022/11/06 09:12:05;;;;;;;5.63;1.40;;;;;;;;;;4953182;28;20038;-77
2022/11/06 09:14:32;;;;;;;4.40;1.20;;;;;;;;;;4948899;28;20081;-77
2022/11/06 09:16:58;;;;;;;5.78;1.80;;;;;;;;;;4948197;28;20055;-77
2022/11/06 09:19:23;;;;;;;4.88;1.30;;;;;;;;;;4948931;28;20070;-77
2022/11/06 09:21:48;;;;;;;3.30;1.38;;;;;;;;;;4951070;29;20027;-77
2022/11/06 09:24:14;;;;;;;5.75;2.03;;;;;;;;;;4965611;28;20027;-77
2022/11/06 09:26:39;;;;;;;3.72;1.20;;;;;;;;;;4967620;28;20023;-77
2022/11/06 09:29:04;;;;;;;5.05;1.60;;;;;;;;;;4949732;28;20504;-77
2022/11/06 09:31:30;;;;;;;3.67;1.25;;;;;;;;;;4947666;29;20046;-77
2022/11/06 09:33:55;;;;;;;4.47;1.25;;;;;;;;;;4953862;28;20074;-77
2022/11/06 09:36:21;;;;;;;5.13;1.50;;;;;;;;;;4954584;29;20110;-77
2022/11/06 09:38:46;;;;;;;3.60;1.80;;;;;;;;;;4951868;29;20032;-77
2022/11/06 09:41:24;;;;;;;4.45;1.33;;;;;;;;;;4952013;28;20023;-77
2022/11/06 09:44:08;;;;;;;3.88;1.10;;;;;;;;;;4955967;28;20031;-77
2022/11/06 09:46:39;;;;;;;4.50;1.20;;;;;;;;;;4947279;28;20031;-77
2022/11/06 09:49:15;;;;;;;7.22;1.20;;;;;;;;;;4950190;29;20077;-77
2022/11/06 09:51:49;;;;;;;6.57;1.27;;;;;;;;;;4949543;29;20050;-77
2022/11/06 09:54:22;;;;;;;3.08;1.17;;;;;;;;;;4951972;29;20086;-77
2022/11/06 09:56:53;;;;;;;3.75;1.23;;;;;;;;;;4962690;28;20078;-76
2022/11/06 09:59:19;;;;;;;3.88;1.27;;;;;;;;;;4951399;29;20035;-77
2022/11/06 10:01:53;;;;;;;4.78;1.00;;;;;;;;;;4954368;29;20035;-77
2022/11/06 10:04:33;;;;;;;4.03;1.00;;;;;;;;;;4967196;28;20357;-77
2022/11/06 10:06:59;;;;;;;2.25;0.90;;;;;;;;;;4961457;28;20181;-77
2022/11/06 10:09:24;;;;;;;4.50;0.93;;;;;;;;;;4961284;28;20047;-77
2022/11/06 10:12:14;;;;;;;4.20;1.17;;;;;;;;;;4947892;28;20043;-77
2022/11/06 10:14:55;;;;;;;3.70;1.10;;;;;;;;;;4956369;28;20440;-77
2022/11/06 10:17:42;;;;;;;4.30;1.10;;;;;;;;;;4952472;29;20039;-77
2022/11/06 10:20:18;;;;;;;4.85;1.10;;;;;;;;;;4954325;28;20023;-76
2022/11/06 10:23:02;;;;;;;4.18;1.25;;;;;;;;;;4954683;28;20039;-76
2022/11/06 10:25:54;;;;;;;4.20;1.30;;;;;;;;;;4954122;29;20598;-77
2022/11/06 10:28:22;;;;;;;5.45;1.20;;;;;;;;;;4951641;29;20035;-76
2022/11/06 10:31:01;;;;;;;4.63;1.05;;;;;;;;;;4965246;28;20032;-76
2022/11/06 10:33:44;;;;;;;4.00;0.88;;;;;;;;;;4953020;28;20165;-76
2022/11/06 10:36:44;;;;;;;2.08;1.02;;;;;;;;;;4970561;28;20027;-76
2022/11/06 10:39:19;;;;;;;4.63;1.17;;;;;;;;;;4954163;29;20066;-76
2022/11/06 10:41:49;;;;;;;1.95;0.90;;;;;;;;;;4953756;28;20058;-76
2022/11/06 10:44:24;;;;;;;3.78;1.25;;;;;;;;;;4966461;28;20427;-76
2022/11/06 10:46:54;;;;;;;1.90;0.85;;;;;;;;;;4951285;28;20431;-76
2022/11/06 10:49:28;;;;;;;4.03;1.17;;;;;;;;;;4952055;29;20031;-76
2022/11/06 10:52:18;;;;;;;2.58;1.00;;;;;;;;;;4968890;28;20031;-77
2022/11/06 10:54:52;;;;;;;3.42;1.42;;;;;;;;;;4953814;29;20031;-76
2022/11/06 10:57:34;;;;;;;2.50;0.95;;;;;;;;;;4952343;29;20476;-76
2022/11/06 11:00:00;;;;;;;3.67;0.98;;;;;;;;;;4952384;29;20507;-76
2022/11/06 11:02:34;;;;;;;2.53;1.00;;;;;;;;;;4954037;28;20042;-76
2022/11/06 11:04:59;;;;;;;4.28;1.10;;;;;;;;;;4954843;28;20019;-76
2022/11/06 11:07:30;;;;;;;3.22;1.30;;;;;;;;;;4952336;28;20051;-76
2022/11/06 11:09:55;;;;;;;4.22;1.30;;;;;;;;;;4949948;29;20031;-76
2022/11/06 11:12:28;;;;;;;4.65;1.30;;;;;;;;;;4966250;28;20361;-76
2022/11/06 11:15:04;;;;;;;;;;;;;;;;;;4956217;28;20038;-77
2022/11/06 11:17:30;;;;;;;4.03;1.05;;;;;;;;;;4954298;29;19914;-76
2022/11/06 11:19:55;;;;;;;6.30;1.70;;;;;;;;;;4968599;28;20138;-76
2022/11/06 11:22:21;;;;;;;2.95;1.30;;;;;;;;;;4954567;28;20106;-76
2022/11/06 11:24:57;;;;;;;3.78;1.20;;;;;;;;;;4954992;28;20033;-76
2022/11/06 11:27:24;;;;;;;3.65;1.30;;;;;;;;;;4951826;28;20048;-77
2022/11/06 11:29:50;;;;;;;4.40;1.15;;;;;;;;;;4952250;29;20039;-76
2022/11/06 11:32:19;;;;;;;4.82;1.40;;;;;;;;;;4951858;29;20045;-76
2022/11/06 11:34:48;;;;;;;3.15;1.10;;;;;;;;;;4954263;28;20023;-76
2022/11/06 11:37:30;;;;;;;3.72;1.27;;;;;;;;;;4942481;28;20038;-77
2022/11/06 11:40:26;;;;;;;4.82;1.30;;;;;;;;;;4947732;28;20027;-76
2022/11/06 11:42:51;;;;;;;3.97;1.23;;;;;;;;;;4952121;28;20027;-76
2022/11/06 11:45:19;;;;;;;3.90;1.42;;;;;;;;;;4950808;28;20050;-76
2022/11/06 11:47:47;;;;;;;2.80;1.20;;;;;;;;;;4967792;28;20027;-76
2022/11/06 11:50:28;;;;;;;3.28;1.20;;;;;;;;;;4951492;28;20070;-76
2022/11/06 11:53:18;;;;;;;3.95;1.20;;;;;;;;;;4954355;28;20035;-76
2022/11/06 11:55:49;;;;;;;3.65;1.30;;;;;;;;;;4951881;28;20086;-76
2022/11/06 11:58:19;;;;;;;3.35;0.93;;;;;;;;;;4951072;28;20078;-76
2022/11/06 12:00:55;;;;;;;3.38;1.20;;;;;;;;;;4942434;29;20129;-76
2022/11/06 12:03:22;;;;;;;5.70;1.20;;;;;;;;;;4937385;28;20082;-76
2022/11/06 12:05:47;;;;;;;3.78;1.10;;;;;;;;;;4947736;28;20027;-76
2022/11/06 12:08:21;;;;;;;2.38;1.00;;;;;;;;;;4946848;29;20168;-76
2022/11/06 12:10:48;;;;;;;3.63;1.05;;;;;;;;;;4949594;28;20106;-76
2022/11/06 12:13:20;;;;;;;3.72;1.10;;;;;;;;;;4957851;28;20035;-76
2022/11/06 12:16:09;;;;;;;4.47;1.40;;;;;;;;;;4949501;28;20038;-76
2022/11/06 12:18:43;;;;;;;2.63;1.08;;;;;;;;;;4961302;28;20023;-76
2022/11/06 12:21:23;;;;;;;2.83;1.20;;;;;;;;;;4948051;28;20034;-76
2022/11/06 12:24:17;;;;;;;3.00;1.02;;;;;;;;;;4964533;28;20039;-76
2022/11/06 12:26:56;;;;;;;3.97;1.17;;;;;;;;;;4950145;29;20479;-76
2022/11/06 12:29:35;;;;;;;2.92;0.98;;;;;;;;;;4942250;28;20040;-76
2022/11/06 12:32:16;;;;;;;7.25;1.10;;;;;;;;;;4947380;29;20047;-77
2022/11/06 12:35:04;;;;;;;3.25;1.15;;;;;;;;;;4948204;28;20026;-76
2022/11/06 12:37:50;;;;;;;3.67;0.90;;;;;;;;;;4948078;28;20032;-76
2022/11/06 12:40:21;;;;;;;3.55;1.08;;;;;;;;;;4949527;28;20031;-77
2022/11/06 12:43:16;;;;;;;4.35;1.08;;;;;;;;;;4947413;29;20031;-76
2022/11/06 12:45:44;;;;;;;3.55;1.02;;;;;;;;;;4961197;28;20023;-76
2022/11/06 12:48:36;;;;;;;2.33;1.00;;;;;;;;;;4956683;28;20034;-76
2022/11/06 12:51:20;;;;;;;3.28;1.25;;;;;;;;;;4938990;28;20515;-76
2022/11/06 12:54:12;;;;;;;6.05;1.00;;;;;;;;;;4962236;28;20031;-77
2022/11/06 12:56:54;;;;;;;5.70;0.90;;;;;;;;;;4937453;28;20423;-76
2022/11/06 12:59:28;;;;;;;2.60;0.90;;;;;;;;;;4942861;29;20618;-77
2022/11/06 13:02:18;;;;;;;6.72;1.40;;;;;;;;;;4941877;28;20086;-76
2022/11/06 13:04:50;;;;;;;3.40;1.40;;;;;;;;;;4963744;28;20119;-76
2022/11/06 13:07:52;;;;;;;3.28;1.40;;;;;;;;;;4960926;28;20059;-76
2022/11/06 13:10:30;;;;;;;2.22;0.90;;;;;;;;;;4960454;28;20510;-76
2022/11/06 13:13:09;;;;;;;4.72;1.25;;;;;;;;;;4950621;28;20030;-76
2022/11/06 13:15:50;;;;;;;3.83;1.02;;;;;;;;;;4948706;28;20377;-76
2022/11/06 13:18:33;;;;;;;3.63;1.00;;;;;;;;;;4948159;28;20027;-76
2022/11/06 13:21:19;;;;;;;4.35;1.23;;;;;;;;;;4947344;29;20542;-76
2022/11/06 13:24:00;;;;;;;4.63;1.05;;;;;;;;;;4957703;28;20035;-76
2022/11/06 13:26:41;;;;;;;2.72;0.88;;;;;;;;;;4964616;28;20635;-76
2022/11/06 13:29:13;;;;;;;3.53;1.33;;;;;;;;;;4950115;28;20043;-76
2022/11/06 13:31:47;;;;;;;3.05;0.95;;;;;;;;;;4945088;28;20043;-76
2022/11/06 13:34:25;;;;;;;4.10;1.02;;;;;;;;;;4953185;28;20542;-76
2022/11/06 13:36:51;;;;;;;4.55;1.20;;;;;;;;;;4950521;29;20027;-76
2022/11/06 13:39:23;;;;;;;2.85;0.90;;;;;;;;;;4952316;28;20031;-76
2022/11/06 13:41:51;;;;;;;3.33;1.02;;;;;;;;;;4946805;28;20042;-76
2022/11/06 13:44:19;;;;;;;5.18;0.98;;;;;;;;;;4944636;28;20035;-76
2022/11/06 13:47:30;;;;;;;3.30;0.93;;;;;;;;;;4948654;29;20142;-76
2022/11/06 13:50:18;;;;;;;2.30;1.08;;;;;;;;;;4937541;28;20043;-77
2022/11/06 13:52:52;;;;;;;3.55;1.30;;;;;;;;;;4952113;28;20118;-76
2022/11/06 13:55:30;;;;;;;5.97;1.60;;;;;;;;;;4945172;29;20503;-76
2022/11/06 13:58:08;;;;;;;5.15;1.98;;;;;;;;;;4943119;28;20039;-77
2022/11/06 14:01:05;;;;;;;7.95;3.58;;;;;;;;;;4964089;28;20030;-76
2022/11/06 14:03:54;;;;;;;8.82;4.15;;;;;;;;;;4948359;28;20126;-76
2022/11/06 14:06:26;;;;;;;11.85;4.82;;;;;;;;;;4946907;29;20305;-76
2022/11/06 14:09:04;;;;;;;10.07;4.03;;;;;;;;;;4944725;28;20118;-77
2022/11/06 14:11:33;;;;;;;9.20;4.30;;;;;;;;;;4948449;28;20058;-77
2022/11/06 14:14:04;;;;;;;10.68;4.72;;;;;;;;;;4947576;28;20027;-77
2022/11/06 14:16:33;;;;;;;8.65;4.28;;;;;;;;;;4957967;28;20476;-77
2022/11/06 14:19:20;;;;;;;7.95;4.38;;;;;;;;;;4947544;28;20053;-77
2022/11/06 14:21:51;;;;;;;10.10;3.72;;;;;;;;;;4958135;28;20027;-77
2022/11/06 14:24:32;;;;;;;7.95;3.83;;;;;;;;;;4945761;28;20502;-77
2022/11/06 14:26:59;;;;;;;8.55;3.97;;;;;;;;;;4946574;29;20487;-78
2022/11/06 14:29:25;;;;;;;7.65;3.17;;;;;;;;;;4947299;28;20039;-78
2022/11/06 14:32:11;;;;;;;5.97;2.85;;;;;;;;;;4942580;28;20038;-78
2022/11/06 14:34:41;;;;;;;6.93;2.70;;;;;;;;;;4921039;28;20031;-78
2022/11/06 14:37:19;;;;;;;5.65;2.28;;;;;;;;;;4937467;28;20053;-78
2022/11/06 14:39:50;;;;;;;6.00;2.00;;;;;;;;;;4941734;28;20372;-78
2022/11/06 14:42:27;;;;;;;4.88;1.80;;;;;;;;;;4937417;29;20593;-79
2022/11/06 14:44:54;;;;;;;2.47;1.40;;;;;;;;;;4940173;28;20056;-79
2022/11/06 14:47:27;;;;;;;5.70;1.90;;;;;;;;;;4939458;28;20078;-79
2022/11/06 14:49:54;;;;;;;3.53;1.45;;;;;;;;;;4936556;28;20039;-80
2022/11/06 14:52:22;;;;;;;3.90;1.38;;;;;;;;;;4937755;28;20392;-80
2022/11/06 14:55:17;;;;;;;3.97;1.30;;;;;;;;;;4937022;28;20026;-78
2022/11/06 14:57:49;;;;;;;2.97;1.20;;;;;;;;;;4939540;28;20565;-79
2022/11/06 15:00:52;;;;;;;2.45;1.05;;;;;;;;;;4936251;28;20058;-80
2022/11/06 15:03:43;;;;;;;3.75;1.33;;;;;;;;;;4934719;28;20123;-79
2022/11/06 15:06:15;;;;;;;2.45;1.00;;;;;;;;;;4931592;28;20130;-79
2022/11/06 15:08:49;;;;;;;3.95;1.10;;;;;;;;;;4954452;28;20051;-79
2022/11/06 15:11:33;;;;;;;4.13;1.30;;;;;;;;;;4937308;28;20046;-80
2022/11/06 15:13:59;;;;;;;4.40;1.35;;;;;;;;;;4936773;28;20484;-80
2022/11/06 15:16:36;;;;;;;6.47;1.23;;;;;;;;;;4937332;28;20063;-79
2022/11/06 15:19:11;;;;;;;1.85;1.10;;;;;;;;;;4935295;28;20118;-79
2022/11/06 15:21:44;;;;;;;5.97;1.15;;;;;;;;;;4938000;28;20035;-79
2022/11/06 15:24:26;;;;;;;;;;;;;;;;;;4939605;28;20454;-79
2022/11/06 15:26:56;;;;;;;3.50;1.08;;;;;;;;;;4941253;28;19918;-79